sensor_id;sensor_type;location;lat;lon;timestamp;temperature;humidity
13589;DHT22;6865;52.552;13.434;2022-08-03T00:01:27;20.90;85.10
13589;DHT22;6865;52.552;13.434;2022-08-03T00:03:54;21.00;85.20
13589;DHT22;6865;52.552;13.434;2022-08-03T00:06:20;20.90;85.10
13589;DHT22;6865;52.552;13.434;2022-08-03T00:08:48;20.90;85.80
13589;DHT22;6865;52.552;13.434;2022-08-03T00:11:14;21.10;85.00
13589;DHT22;6865;52.552;13.434;2022-08-03T00:13:41;21.10;84.80
13589;DHT22;6865;52.552;13.434;2022-08-03T00:16:08;21.00;85.00
13589;DHT22;6865;52.552;13.434;2022-08-03T00:18:36;21.00;85.30
13589;DHT22;6865;52.552;13.434;2022-08-03T00:21:04;21.00;85.60
13589;DHT22;6865;52.552;13.434;2022-08-03T00:23:31;21.00;85.70
13589;DHT22;6865;52.552;13.434;2022-08-03T00:26:17;20.90;85.70
13589;DHT22;6865;52.552;13.434;2022-08-03T00:28:44;20.90;85.80
13589;DHT22;6865;52.552;13.434;2022-08-03T00:31:10;20.90;86.00
13589;DHT22;6865;52.552;13.434;2022-08-03T00:33:39;21.00;86.30
13589;DHT22;6865;52.552;13.434;2022-08-03T00:36:26;20.90;86.20
13589;DHT22;6865;52.552;13.434;2022-08-03T00:38:53;21.00;86.10
13589;DHT22;6865;52.552;13.434;2022-08-03T00:41:19;21.10;86.20
13589;DHT22;6865;52.552;13.434;2022-08-03T00:43:46;20.30;85.50
13589;DHT22;6865;52.552;13.434;2022-08-03T00:46:13;21.20;85.80
13589;DHT22;6865;52.552;13.434;2022-08-03T00:48:48;21.20;86.00
13589;DHT22;6865;52.552;13.434;2022-08-03T00:51:15;23.30;87.10
13589;DHT22;6865;52.552;13.434;2022-08-03T00:53:42;21.20;86.00
13589;DHT22;6865;52.552;13.434;2022-08-03T00:56:11;21.20;86.10
13589;DHT22;6865;52.552;13.434;2022-08-03T00:58:38;21.10;86.30
13589;DHT22;6865;52.552;13.434;2022-08-03T01:01:04;21.10;86.60
13589;DHT22;6865;52.552;13.434;2022-08-03T01:03:32;21.10;86.90
13589;DHT22;6865;52.552;13.434;2022-08-03T01:06:10;21.00;87.10
13589;DHT22;6865;52.552;13.434;2022-08-03T01:08:53;20.90;87.40
13589;DHT22;6865;52.552;13.434;2022-08-03T01:11:37;20.90;87.90
13589;DHT22;6865;52.552;13.434;2022-08-03T01:14:29;20.90;88.10
13589;DHT22;6865;52.552;13.434;2022-08-03T01:17:08;20.80;88.50
13589;DHT22;6865;52.552;13.434;2022-08-03T01:19:45;20.70;88.80
13589;DHT22;6865;52.552;13.434;2022-08-03T01:22:32;20.70;88.90
13589;DHT22;6865;52.552;13.434;2022-08-03T01:25:12;20.70;89.30
13589;DHT22;6865;52.552;13.434;2022-08-03T01:27:56;20.60;89.60
13589;DHT22;6865;52.552;13.434;2022-08-03T01:30:28;20.60;89.80
13589;DHT22;6865;52.552;13.434;2022-08-03T01:33:01;20.60;90.20
13589;DHT22;6865;52.552;13.434;2022-08-03T01:35:42;20.50;90.10
13589;DHT22;6865;52.552;13.434;2022-08-03T01:38:24;20.60;90.10
13589;DHT22;6865;52.552;13.434;2022-08-03T01:40:53;20.60;90.10
13589;DHT22;6865;52.552;13.434;2022-08-03T01:43:25;20.60;90.10
13589;DHT22;6865;52.552;13.434;2022-08-03T01:46:17;20.70;90.10
13589;DHT22;6865;52.552;13.434;2022-08-03T01:48:47;20.80;90.00
13589;DHT22;6865;52.552;13.434;2022-08-03T01:51:16;20.80;90.00
13589;DHT22;6865;52.552;13.434;2022-08-03T01:53:44;20.70;90.00
13589;DHT22;6865;52.552;13.434;2022-08-03T01:56:12;20.70;90.10
13589;DHT22;6865;52.552;13.434;2022-08-03T01:58:40;20.70;90.20
13589;DHT22;6865;52.552;13.434;2022-08-03T02:01:08;20.70;90.20
13589;DHT22;6865;52.552;13.434;2022-08-03T02:03:37;20.70;90.20
13589;DHT22;6865;52.552;13.434;2022-08-03T02:06:25;20.70;90.20
13589;DHT22;6865;52.552;13.434;2022-08-03T02:09:13;20.70;90.30
13589;DHT22;6865;52.552;13.434;2022-08-03T02:11:41;20.70;90.20
13589;DHT22;6865;52.552;13.434;2022-08-03T02:14:09;20.70;90.20
13589;DHT22;6865;52.552;13.434;2022-08-03T02:16:36;20.70;90.20
13589;DHT22;6865;52.552;13.434;2022-08-03T02:19:04;20.70;90.20
13589;DHT22;6865;52.552;13.434;2022-08-03T02:21:35;20.70;90.20
13589;DHT22;6865;52.552;13.434;2022-08-03T02:24:22;20.70;90.20
13589;DHT22;6865;52.552;13.434;2022-08-03T02:26:52;20.70;90.20
13589;DHT22;6865;52.552;13.434;2022-08-03T02:29:23;20.80;90.20
13589;DHT22;6865;52.552;13.434;2022-08-03T02:32:09;20.70;90.30
13589;DHT22;6865;52.552;13.434;2022-08-03T02:34:39;20.70;90.20
13589;DHT22;6865;52.552;13.434;2022-08-03T02:37:07;20.70;90.20
13589;DHT22;6865;52.552;13.434;2022-08-03T02:39:36;20.70;90.20
13589;DHT22;6865;52.552;13.434;2022-08-03T02:42:05;20.80;90.30
13589;DHT22;6865;52.552;13.434;2022-08-03T02:44:34;20.80;90.20
13589;DHT22;6865;52.552;13.434;2022-08-03T02:47:06;20.80;90.10
13589;DHT22;6865;52.552;13.434;2022-08-03T02:49:35;20.80;90.20
13589;DHT22;6865;52.552;13.434;2022-08-03T02:52:19;20.90;90.20
13589;DHT22;6865;52.552;13.434;2022-08-03T02:54:49;20.80;90.20
13589;DHT22;6865;52.552;13.434;2022-08-03T02:57:17;20.80;90.30
13589;DHT22;6865;52.552;13.434;2022-08-03T02:59:46;20.80;90.40
13589;DHT22;6865;52.552;13.434;2022-08-03T03:02:14;20.70;90.40
13589;DHT22;6865;52.552;13.434;2022-08-03T03:04:43;20.70;90.50
13589;DHT22;6865;52.552;13.434;2022-08-03T03:07:31;20.70;90.60
13589;DHT22;6865;52.552;13.434;2022-08-03T03:10:17;20.70;90.60
13589;DHT22;6865;52.552;13.434;2022-08-03T03:12:44;20.70;90.70
13589;DHT22;6865;52.552;13.434;2022-08-03T03:15:12;20.70;90.70
13589;DHT22;6865;52.552;13.434;2022-08-03T03:17:38;20.60;90.70
13589;DHT22;6865;52.552;13.434;2022-08-03T03:20:07;20.90;90.90
13589;DHT22;6865;52.552;13.434;2022-08-03T03:22:35;20.70;90.80
13589;DHT22;6865;52.552;13.434;2022-08-03T03:25:03;20.60;90.70
13589;DHT22;6865;52.552;13.434;2022-08-03T03:27:32;20.60;91.00
13589;DHT22;6865;52.552;13.434;2022-08-03T03:29:59;20.60;90.70
13589;DHT22;6865;52.552;13.434;2022-08-03T03:32:28;20.60;90.70
13589;DHT22;6865;52.552;13.434;2022-08-03T03:34:55;20.60;90.80
13589;DHT22;6865;52.552;13.434;2022-08-03T03:37:25;20.50;90.90
13589;DHT22;6865;52.552;13.434;2022-08-03T03:39:53;20.40;91.10
13589;DHT22;6865;52.552;13.434;2022-08-03T03:42:20;20.40;91.30
13589;DHT22;6865;52.552;13.434;2022-08-03T03:44:47;20.30;91.50
13589;DHT22;6865;52.552;13.434;2022-08-03T03:47:14;20.20;91.60
13589;DHT22;6865;52.552;13.434;2022-08-03T03:49:42;20.20;91.70
13589;DHT22;6865;52.552;13.434;2022-08-03T03:52:09;20.10;91.90
13589;DHT22;6865;52.552;13.434;2022-08-03T03:54:43;20.10;92.00
13589;DHT22;6865;52.552;13.434;2022-08-03T03:57:10;20.10;92.10
13589;DHT22;6865;52.552;13.434;2022-08-03T03:59:42;20.00;92.20
13589;DHT22;6865;52.552;13.434;2022-08-03T04:02:10;20.00;92.30
13589;DHT22;6865;52.552;13.434;2022-08-03T04:04:38;20.00;92.40
13589;DHT22;6865;52.552;13.434;2022-08-03T04:07:54;20.10;92.50
13589;DHT22;6865;52.552;13.434;2022-08-03T04:10:41;20.00;92.50
13589;DHT22;6865;52.552;13.434;2022-08-03T04:13:41;20.00;92.50
13589;DHT22;6865;52.552;13.434;2022-08-03T04:16:11;20.00;92.60
13589;DHT22;6865;52.552;13.434;2022-08-03T04:18:40;20.10;92.80
13589;DHT22;6865;52.552;13.434;2022-08-03T04:21:10;20.10;92.80
13589;DHT22;6865;52.552;13.434;2022-08-03T04:23:41;20.20;92.80
13589;DHT22;6865;52.552;13.434;2022-08-03T04:26:11;20.30;92.70
13589;DHT22;6865;52.552;13.434;2022-08-03T04:28:40;20.30;92.50
13589;DHT22;6865;52.552;13.434;2022-08-03T04:31:08;20.30;92.50
13589;DHT22;6865;52.552;13.434;2022-08-03T04:33:37;20.40;92.60
13589;DHT22;6865;52.552;13.434;2022-08-03T04:36:06;20.50;92.50
13589;DHT22;6865;52.552;13.434;2022-08-03T04:38:40;20.40;92.50
13589;DHT22;6865;52.552;13.434;2022-08-03T04:41:09;20.40;92.50
13589;DHT22;6865;52.552;13.434;2022-08-03T04:43:37;20.50;92.50
13589;DHT22;6865;52.552;13.434;2022-08-03T04:46:07;20.50;92.50
13589;DHT22;6865;52.552;13.434;2022-08-03T04:48:35;20.50;92.50
13589;DHT22;6865;52.552;13.434;2022-08-03T04:51:02;20.50;92.60
13589;DHT22;6865;52.552;13.434;2022-08-03T04:53:29;20.50;92.40
13589;DHT22;6865;52.552;13.434;2022-08-03T04:56:03;20.60;92.40
13589;DHT22;6865;52.552;13.434;2022-08-03T04:58:30;20.60;92.30
13589;DHT22;6865;52.552;13.434;2022-08-03T05:00:57;20.70;92.20
13589;DHT22;6865;52.552;13.434;2022-08-03T05:03:24;20.70;92.20
13589;DHT22;6865;52.552;13.434;2022-08-03T05:05:52;20.70;92.10
13589;DHT22;6865;52.552;13.434;2022-08-03T05:08:35;20.70;92.00
13589;DHT22;6865;52.552;13.434;2022-08-03T05:11:12;20.80;91.80
13589;DHT22;6865;52.552;13.434;2022-08-03T05:13:38;20.70;91.60
13589;DHT22;6865;52.552;13.434;2022-08-03T05:16:05;20.90;91.50
13589;DHT22;6865;52.552;13.434;2022-08-03T05:18:31;21.00;91.30
13589;DHT22;6865;52.552;13.434;2022-08-03T05:20:58;20.90;91.00
13589;DHT22;6865;52.552;13.434;2022-08-03T05:23:25;21.20;90.90
13589;DHT22;6865;52.552;13.434;2022-08-03T05:25:51;21.20;90.70
13589;DHT22;6865;52.552;13.434;2022-08-03T05:28:18;21.20;90.80
13589;DHT22;6865;52.552;13.434;2022-08-03T05:30:45;21.40;90.60
13589;DHT22;6865;52.552;13.434;2022-08-03T05:33:11;21.30;90.50
13589;DHT22;6865;52.552;13.434;2022-08-03T05:35:38;21.50;89.70
13589;DHT22;6865;52.552;13.434;2022-08-03T05:38:26;21.60;88.80
13589;DHT22;6865;52.552;13.434;2022-08-03T05:41:01;21.30;88.00
13589;DHT22;6865;52.552;13.434;2022-08-03T05:43:47;21.70;87.80
13589;DHT22;6865;52.552;13.434;2022-08-03T05:46:14;21.80;87.20
13589;DHT22;6865;52.552;13.434;2022-08-03T05:48:41;22.00;86.50
13589;DHT22;6865;52.552;13.434;2022-08-03T05:51:08;22.20;85.80
13589;DHT22;6865;52.552;13.434;2022-08-03T05:53:37;22.20;85.60
13589;DHT22;6865;52.552;13.434;2022-08-03T05:56:04;22.30;85.80
13589;DHT22;6865;52.552;13.434;2022-08-03T05:58:40;22.40;85.30
13589;DHT22;6865;52.552;13.434;2022-08-03T06:01:07;22.50;85.20
13589;DHT22;6865;52.552;13.434;2022-08-03T06:03:34;22.60;84.70
13589;DHT22;6865;52.552;13.434;2022-08-03T06:06:00;23.00;83.60
13589;DHT22;6865;52.552;13.434;2022-08-03T06:08:27;23.00;82.60
13589;DHT22;6865;52.552;13.434;2022-08-03T06:10:54;23.20;81.10
13589;DHT22;6865;52.552;13.434;2022-08-03T06:13:20;23.30;81.30
13589;DHT22;6865;52.552;13.434;2022-08-03T06:15:47;23.30;81.00
13589;DHT22;6865;52.552;13.434;2022-08-03T06:18:14;21.10;80.00
13589;DHT22;6865;52.552;13.434;2022-08-03T06:20:40;23.60;80.90
13589;DHT22;6865;52.552;13.434;2022-08-03T06:23:07;23.80;79.60
13589;DHT22;6865;52.552;13.434;2022-08-03T06:25:43;23.90;79.20
13589;DHT22;6865;52.552;13.434;2022-08-03T06:28:11;23.90;78.50
13589;DHT22;6865;52.552;13.434;2022-08-03T06:30:59;23.90;78.10
13589;DHT22;6865;52.552;13.434;2022-08-03T06:33:26;24.20;77.90
13589;DHT22;6865;52.552;13.434;2022-08-03T06:36:13;24.30;77.10
13589;DHT22;6865;52.552;13.434;2022-08-03T06:38:40;24.40;76.30
13589;DHT22;6865;52.552;13.434;2022-08-03T06:41:07;24.40;76.40
13589;DHT22;6865;52.552;13.434;2022-08-03T06:43:33;24.50;76.00
13589;DHT22;6865;52.552;13.434;2022-08-03T06:46:03;24.70;75.80
13589;DHT22;6865;52.552;13.434;2022-08-03T06:48:33;24.70;75.20
13589;DHT22;6865;52.552;13.434;2022-08-03T06:51:00;24.80;74.80
13589;DHT22;6865;52.552;13.434;2022-08-03T06:53:26;24.90;75.00
13589;DHT22;6865;52.552;13.434;2022-08-03T06:55:53;24.90;74.70
13589;DHT22;6865;52.552;13.434;2022-08-03T06:58:21;25.10;74.30
13589;DHT22;6865;52.552;13.434;2022-08-03T07:00:48;25.10;74.20
13589;DHT22;6865;52.552;13.434;2022-08-03T07:03:15;25.30;74.00
13589;DHT22;6865;52.552;13.434;2022-08-03T07:05:42;25.30;74.10
13589;DHT22;6865;52.552;13.434;2022-08-03T07:08:09;23.10;72.50
13589;DHT22;6865;52.552;13.434;2022-08-03T07:10:36;26.90;74.30
13589;DHT22;6865;52.552;13.434;2022-08-03T07:13:03;25.50;73.20
13589;DHT22;6865;52.552;13.434;2022-08-03T07:15:30;25.60;72.40
13589;DHT22;6865;52.552;13.434;2022-08-03T07:18:17;25.70;72.60
13589;DHT22;6865;52.552;13.434;2022-08-03T07:20:55;25.80;72.50
13589;DHT22;6865;52.552;13.434;2022-08-03T07:23:22;25.90;72.10
13589;DHT22;6865;52.552;13.434;2022-08-03T07:25:48;25.90;72.30
13589;DHT22;6865;52.552;13.434;2022-08-03T07:28:16;26.00;72.20
13589;DHT22;6865;52.552;13.434;2022-08-03T07:30:42;26.20;70.80
13589;DHT22;6865;52.552;13.434;2022-08-03T07:33:09;26.30;70.00
13589;DHT22;6865;52.552;13.434;2022-08-03T07:35:36;26.50;69.50
13589;DHT22;6865;52.552;13.434;2022-08-03T07:38:03;26.60;69.70
13589;DHT22;6865;52.552;13.434;2022-08-03T07:40:31;27.10;70.10
13589;DHT22;6865;52.552;13.434;2022-08-03T07:42:58;26.50;69.50
13589;DHT22;6865;52.552;13.434;2022-08-03T07:45:25;26.80;69.30
13589;DHT22;6865;52.552;13.434;2022-08-03T07:47:52;26.90;69.50
13589;DHT22;6865;52.552;13.434;2022-08-03T07:50:20;27.00;68.80
13589;DHT22;6865;52.552;13.434;2022-08-03T07:52:47;27.10;68.00
13589;DHT22;6865;52.552;13.434;2022-08-03T07:55:20;27.30;68.00
13589;DHT22;6865;52.552;13.434;2022-08-03T07:58:08;27.70;67.60
13589;DHT22;6865;52.552;13.434;2022-08-03T08:00:37;27.90;66.70
13589;DHT22;6865;52.552;13.434;2022-08-03T08:03:04;28.60;63.90
13589;DHT22;6865;52.552;13.434;2022-08-03T08:05:31;29.00;62.80
13589;DHT22;6865;52.552;13.434;2022-08-03T08:07:58;29.00;62.60
13589;DHT22;6865;52.552;13.434;2022-08-03T08:10:25;28.90;63.60
13589;DHT22;6865;52.552;13.434;2022-08-03T08:12:52;28.60;63.20
13589;DHT22;6865;52.552;13.434;2022-08-03T08:15:19;26.50;61.80
13589;DHT22;6865;52.552;13.434;2022-08-03T08:17:51;28.20;63.90
13589;DHT22;6865;52.552;13.434;2022-08-03T08:20:21;28.20;63.90
13589;DHT22;6865;52.552;13.434;2022-08-03T08:22:57;28.20;63.50
13589;DHT22;6865;52.552;13.434;2022-08-03T08:25:26;28.10;63.20
13589;DHT22;6865;52.552;13.434;2022-08-03T08:27:53;28.20;63.70
13589;DHT22;6865;52.552;13.434;2022-08-03T08:30:40;28.20;62.00
13589;DHT22;6865;52.552;13.434;2022-08-03T08:33:06;28.20;61.70
13589;DHT22;6865;52.552;13.434;2022-08-03T08:35:47;28.10;61.50
13589;DHT22;6865;52.552;13.434;2022-08-03T08:38:14;28.10;63.30
13589;DHT22;6865;52.552;13.434;2022-08-03T08:40:40;28.10;62.60
13589;DHT22;6865;52.552;13.434;2022-08-03T08:43:07;29.10;61.60
13589;DHT22;6865;52.552;13.434;2022-08-03T08:45:34;28.30;60.20
13589;DHT22;6865;52.552;13.434;2022-08-03T08:48:02;28.30;60.40
13589;DHT22;6865;52.552;13.434;2022-08-03T08:50:35;28.40;60.10
13589;DHT22;6865;52.552;13.434;2022-08-03T08:53:03;28.50;59.30
13589;DHT22;6865;52.552;13.434;2022-08-03T08:55:35;28.50;60.50
13589;DHT22;6865;52.552;13.434;2022-08-03T08:58:23;28.70;60.10
13589;DHT22;6865;52.552;13.434;2022-08-03T09:00:51;28.80;59.10
13589;DHT22;6865;52.552;13.434;2022-08-03T09:03:17;28.80;59.40
13589;DHT22;6865;52.552;13.434;2022-08-03T09:05:59;28.80;59.30
13589;DHT22;6865;52.552;13.434;2022-08-03T09:08:28;28.90;58.60
13589;DHT22;6865;52.552;13.434;2022-08-03T09:10:54;27.10;57.30
13589;DHT22;6865;52.552;13.434;2022-08-03T09:13:21;29.00;58.70
13589;DHT22;6865;52.552;13.434;2022-08-03T09:15:53;29.10;59.20
13589;DHT22;6865;52.552;13.434;2022-08-03T09:18:33;29.10;59.40
13589;DHT22;6865;52.552;13.434;2022-08-03T09:21:24;29.10;58.80
13589;DHT22;6865;52.552;13.434;2022-08-03T09:24:01;29.00;58.50
13589;DHT22;6865;52.552;13.434;2022-08-03T09:26:32;29.10;58.40
13589;DHT22;6865;52.552;13.434;2022-08-03T09:29:01;29.20;58.30
13589;DHT22;6865;52.552;13.434;2022-08-03T09:31:40;29.30;58.70
13589;DHT22;6865;52.552;13.434;2022-08-03T09:34:11;29.40;58.40
13589;DHT22;6865;52.552;13.434;2022-08-03T09:36:45;29.50;58.50
13589;DHT22;6865;52.552;13.434;2022-08-03T09:39:16;29.40;58.10
13589;DHT22;6865;52.552;13.434;2022-08-03T09:41:46;29.40;58.40
13589;DHT22;6865;52.552;13.434;2022-08-03T09:44:13;29.40;58.40
13589;DHT22;6865;52.552;13.434;2022-08-03T09:46:53;29.40;58.40
13589;DHT22;6865;52.552;13.434;2022-08-03T09:49:23;29.50;57.90
13589;DHT22;6865;52.552;13.434;2022-08-03T09:51:51;29.50;57.70
13589;DHT22;6865;52.552;13.434;2022-08-03T09:54:39;29.70;57.00
13589;DHT22;6865;52.552;13.434;2022-08-03T09:57:06;29.90;57.60
13589;DHT22;6865;52.552;13.434;2022-08-03T09:59:33;29.60;57.00
13589;DHT22;6865;52.552;13.434;2022-08-03T10:02:00;29.50;57.20
13589;DHT22;6865;52.552;13.434;2022-08-03T10:04:27;29.70;56.90
13589;DHT22;6865;52.552;13.434;2022-08-03T10:07:08;29.70;56.90
13589;DHT22;6865;52.552;13.434;2022-08-03T10:09:36;29.70;56.60
13589;DHT22;6865;52.552;13.434;2022-08-03T10:12:07;29.80;57.00
13589;DHT22;6865;52.552;13.434;2022-08-03T10:14:37;29.80;56.60
13589;DHT22;6865;52.552;13.434;2022-08-03T10:17:04;29.90;56.50
13589;DHT22;6865;52.552;13.434;2022-08-03T10:19:32;30.10;56.70
13589;DHT22;6865;52.552;13.434;2022-08-03T10:22:35;30.10;56.50
13589;DHT22;6865;52.552;13.434;2022-08-03T10:25:11;30.00;56.50
13589;DHT22;6865;52.552;13.434;2022-08-03T10:27:41;30.10;56.00
13589;DHT22;6865;52.552;13.434;2022-08-03T10:30:09;30.20;56.00
13589;DHT22;6865;52.552;13.434;2022-08-03T10:33:08;30.30;55.70
13589;DHT22;6865;52.552;13.434;2022-08-03T10:35:56;30.10;55.70
13589;DHT22;6865;52.552;13.434;2022-08-03T10:38:28;30.20;55.70
13589;DHT22;6865;52.552;13.434;2022-08-03T10:40:57;30.40;55.40
13589;DHT22;6865;52.552;13.434;2022-08-03T10:43:27;30.60;55.10
13589;DHT22;6865;52.552;13.434;2022-08-03T10:45:56;30.70;54.70
13589;DHT22;6865;52.552;13.434;2022-08-03T10:48:24;30.80;54.10
13589;DHT22;6865;52.552;13.434;2022-08-03T10:50:51;30.80;54.30
13589;DHT22;6865;52.552;13.434;2022-08-03T10:53:40;30.80;54.00
13589;DHT22;6865;52.552;13.434;2022-08-03T11:02:13;30.60;54.50
13589;DHT22;6865;52.552;13.434;2022-08-03T11:04:41;30.60;53.80
13589;DHT22;6865;52.552;13.434;2022-08-03T11:07:24;30.70;53.90
13589;DHT22;6865;52.552;13.434;2022-08-03T11:09:53;30.80;53.60
13589;DHT22;6865;52.552;13.434;2022-08-03T11:12:25;30.90;53.40
13589;DHT22;6865;52.552;13.434;2022-08-03T11:14:59;31.00;53.50
13589;DHT22;6865;52.552;13.434;2022-08-03T11:17:27;31.10;53.50
13589;DHT22;6865;52.552;13.434;2022-08-03T11:19:54;31.20;53.30
13589;DHT22;6865;52.552;13.434;2022-08-03T11:22:23;31.20;53.00
13589;DHT22;6865;52.552;13.434;2022-08-03T11:24:56;31.20;53.10
13589;DHT22;6865;52.552;13.434;2022-08-03T11:27:25;31.20;52.60
13589;DHT22;6865;52.552;13.434;2022-08-03T11:30:30;31.20;52.70
13589;DHT22;6865;52.552;13.434;2022-08-03T11:32:58;31.40;52.90
13589;DHT22;6865;52.552;13.434;2022-08-03T11:35:32;31.30;52.90
13589;DHT22;6865;52.552;13.434;2022-08-03T11:38:03;31.40;53.00
13589;DHT22;6865;52.552;13.434;2022-08-03T11:40:50;31.50;53.10
13589;DHT22;6865;52.552;13.434;2022-08-03T11:46:02;31.60;52.20
13589;DHT22;6865;52.552;13.434;2022-08-03T11:48:40;31.60;52.20
13589;DHT22;6865;52.552;13.434;2022-08-03T11:51:24;31.70;51.60
13589;DHT22;6865;52.552;13.434;2022-08-03T11:53:56;31.60;51.40
13589;DHT22;6865;52.552;13.434;2022-08-03T11:56:24;31.60;51.30
13589;DHT22;6865;52.552;13.434;2022-08-03T11:58:53;31.60;51.30
13589;DHT22;6865;52.552;13.434;2022-08-03T12:01:40;31.70;51.30
13589;DHT22;6865;52.552;13.434;2022-08-03T12:04:07;31.70;51.50
13589;DHT22;6865;52.552;13.434;2022-08-03T12:06:34;31.80;51.60
13589;DHT22;6865;52.552;13.434;2022-08-03T12:09:20;31.80;51.20
13589;DHT22;6865;52.552;13.434;2022-08-03T12:11:48;31.80;51.10
13589;DHT22;6865;52.552;13.434;2022-08-03T12:14:26;31.80;51.50
13589;DHT22;6865;52.552;13.434;2022-08-03T12:17:13;31.90;51.00
13589;DHT22;6865;52.552;13.434;2022-08-03T12:19:43;32.00;50.80
13589;DHT22;6865;52.552;13.434;2022-08-03T12:22:10;32.10;50.20
13589;DHT22;6865;52.552;13.434;2022-08-03T12:24:41;32.10;50.50
13589;DHT22;6865;52.552;13.434;2022-08-03T12:27:08;32.10;50.80
13589;DHT22;6865;52.552;13.434;2022-08-03T12:29:35;32.20;50.30
13589;DHT22;6865;52.552;13.434;2022-08-03T12:32:02;32.30;50.50
13589;DHT22;6865;52.552;13.434;2022-08-03T12:34:47;32.20;50.40
13589;DHT22;6865;52.552;13.434;2022-08-03T12:37:21;32.20;50.00
13589;DHT22;6865;52.552;13.434;2022-08-03T12:39:50;32.20;50.70
13589;DHT22;6865;52.552;13.434;2022-08-03T12:42:32;32.10;50.90
13589;DHT22;6865;52.552;13.434;2022-08-03T12:45:17;32.20;50.50
13589;DHT22;6865;52.552;13.434;2022-08-03T12:47:54;32.20;50.40
13589;DHT22;6865;52.552;13.434;2022-08-03T12:50:29;32.10;50.30
13589;DHT22;6865;52.552;13.434;2022-08-03T12:53:02;32.10;50.60
13589;DHT22;6865;52.552;13.434;2022-08-03T12:55:34;32.10;51.00
13589;DHT22;6865;52.552;13.434;2022-08-03T12:58:32;32.20;51.20
13589;DHT22;6865;52.552;13.434;2022-08-03T13:01:02;32.10;50.60
13589;DHT22;6865;52.552;13.434;2022-08-03T13:03:46;32.10;51.00
13589;DHT22;6865;52.552;13.434;2022-08-03T13:06:20;32.20;51.10
13589;DHT22;6865;52.552;13.434;2022-08-03T13:08:48;32.20;51.00
13589;DHT22;6865;52.552;13.434;2022-08-03T13:11:25;32.20;50.90
13589;DHT22;6865;52.552;13.434;2022-08-03T13:14:12;32.30;50.50
13589;DHT22;6865;52.552;13.434;2022-08-03T13:16:46;32.40;50.80
13589;DHT22;6865;52.552;13.434;2022-08-03T13:19:13;32.40;50.60
13589;DHT22;6865;52.552;13.434;2022-08-03T13:21:42;32.30;50.60
13589;DHT22;6865;52.552;13.434;2022-08-03T13:24:29;32.40;50.10
13589;DHT22;6865;52.552;13.434;2022-08-03T13:26:57;32.50;49.50
13589;DHT22;6865;52.552;13.434;2022-08-03T13:29:24;32.60;49.90
13589;DHT22;6865;52.552;13.434;2022-08-03T13:31:51;32.60;49.60
13589;DHT22;6865;52.552;13.434;2022-08-03T13:34:17;32.70;49.30
13589;DHT22;6865;52.552;13.434;2022-08-03T13:36:50;31.50;48.40
13589;DHT22;6865;52.552;13.434;2022-08-03T13:39:37;32.60;49.60
13589;DHT22;6865;52.552;13.434;2022-08-03T13:42:24;32.60;49.80
13589;DHT22;6865;52.552;13.434;2022-08-03T13:44:51;32.50;50.20
13589;DHT22;6865;52.552;13.434;2022-08-03T13:47:18;32.40;50.00
13589;DHT22;6865;52.552;13.434;2022-08-03T13:49:45;32.40;50.00
13589;DHT22;6865;52.552;13.434;2022-08-03T13:52:31;32.40;50.40
13589;DHT22;6865;52.552;13.434;2022-08-03T13:54:58;32.40;50.00
13589;DHT22;6865;52.552;13.434;2022-08-03T13:57:26;32.50;50.20
13589;DHT22;6865;52.552;13.434;2022-08-03T14:00:13;32.40;50.20
13589;DHT22;6865;52.552;13.434;2022-08-03T14:02:58;32.50;50.30
13589;DHT22;6865;52.552;13.434;2022-08-03T14:05:41;32.50;50.50
13589;DHT22;6865;52.552;13.434;2022-08-03T14:08:09;32.50;50.40
13589;DHT22;6865;52.552;13.434;2022-08-03T14:10:38;32.40;50.30
13589;DHT22;6865;52.552;13.434;2022-08-03T14:13:05;32.50;50.00
13589;DHT22;6865;52.552;13.434;2022-08-03T14:15:33;32.40;50.10
13589;DHT22;6865;52.552;13.434;2022-08-03T14:18:16;32.50;50.30
13589;DHT22;6865;52.552;13.434;2022-08-03T14:20:59;32.50;50.40
13589;DHT22;6865;52.552;13.434;2022-08-03T14:23:32;32.60;49.60
13589;DHT22;6865;52.552;13.434;2022-08-03T14:25:59;32.50;50.30
13589;DHT22;6865;52.552;13.434;2022-08-03T14:28:26;32.50;50.30
13589;DHT22;6865;52.552;13.434;2022-08-03T14:30:54;32.50;50.30
13589;DHT22;6865;52.552;13.434;2022-08-03T14:33:22;32.50;50.30
13589;DHT22;6865;52.552;13.434;2022-08-03T14:35:49;32.60;50.40
13589;DHT22;6865;52.552;13.434;2022-08-03T14:38:17;32.50;50.00
13589;DHT22;6865;52.552;13.434;2022-08-03T14:40:44;32.50;50.20
13589;DHT22;6865;52.552;13.434;2022-08-03T14:43:11;32.60;50.10
13589;DHT22;6865;52.552;13.434;2022-08-03T14:45:38;32.50;50.00
13589;DHT22;6865;52.552;13.434;2022-08-03T14:48:05;32.50;50.20
13589;DHT22;6865;52.552;13.434;2022-08-03T14:50:52;32.30;50.50
13589;DHT22;6865;52.552;13.434;2022-08-03T14:53:21;32.40;50.20
13589;DHT22;6865;52.552;13.434;2022-08-03T14:55:48;32.50;50.10
13589;DHT22;6865;52.552;13.434;2022-08-03T14:58:22;32.50;50.50
13589;DHT22;6865;52.552;13.434;2022-08-03T15:00:50;32.50;50.50
13589;DHT22;6865;52.552;13.434;2022-08-03T15:03:18;32.50;50.50
13589;DHT22;6865;52.552;13.434;2022-08-03T15:05:55;32.60;50.40
13589;DHT22;6865;52.552;13.434;2022-08-03T15:08:23;32.60;50.40
13589;DHT22;6865;52.552;13.434;2022-08-03T15:10:50;32.60;50.30
13589;DHT22;6865;52.552;13.434;2022-08-03T15:13:18;32.60;50.10
13589;DHT22;6865;52.552;13.434;2022-08-03T15:15:47;32.60;50.00
13589;DHT22;6865;52.552;13.434;2022-08-03T15:18:14;32.60;50.20
13589;DHT22;6865;52.552;13.434;2022-08-03T15:20:40;32.60;49.90
13589;DHT22;6865;52.552;13.434;2022-08-03T15:23:13;32.60;50.10
13589;DHT22;6865;52.552;13.434;2022-08-03T15:25:40;32.70;50.00
13589;DHT22;6865;52.552;13.434;2022-08-03T15:28:28;32.70;50.20
13589;DHT22;6865;52.552;13.434;2022-08-03T15:30:55;32.60;50.10
13589;DHT22;6865;52.552;13.434;2022-08-03T15:33:22;32.50;50.50
13589;DHT22;6865;52.552;13.434;2022-08-03T15:35:48;32.60;50.70
13589;DHT22;6865;52.552;13.434;2022-08-03T15:38:15;32.40;50.70
13589;DHT22;6865;52.552;13.434;2022-08-03T15:40:42;32.40;50.60
13589;DHT22;6865;52.552;13.434;2022-08-03T15:43:09;32.40;50.50
13589;DHT22;6865;52.552;13.434;2022-08-03T15:45:36;32.50;49.90
13589;DHT22;6865;52.552;13.434;2022-08-03T15:48:05;32.50;50.40
13589;DHT22;6865;52.552;13.434;2022-08-03T15:50:32;32.40;50.20
13589;DHT22;6865;52.552;13.434;2022-08-03T15:52:59;32.50;50.50
13589;DHT22;6865;52.552;13.434;2022-08-03T15:55:26;32.50;50.40
13589;DHT22;6865;52.552;13.434;2022-08-03T15:57:52;32.50;50.00
13589;DHT22;6865;52.552;13.434;2022-08-03T16:00:40;32.70;49.50
13589;DHT22;6865;52.552;13.434;2022-08-03T16:03:06;32.60;49.50
13589;DHT22;6865;52.552;13.434;2022-08-03T16:05:33;32.50;49.50
13589;DHT22;6865;52.552;13.434;2022-08-03T16:08:00;32.50;50.00